sensor_id;sensor_type;location;lat;lon;timestamp;P1;durP1;ratioP1;P2;durP2;ratioP2
61393;SDS011;48555;50.952;-0.120;2023-04-06T00:00:50;4.55;;;3.20;;
61393;SDS011;48555;50.952;-0.120;2023-04-06T00:03:16;4.10;;;3.03;;
61393;SDS011;48555;50.952;-0.120;2023-04-06T00:05:41;8.68;;;3.20;;
61393;SDS011;48555;50.952;-0.120;2023-04-06T00:08:07;4.78;;;2.70;;
61393;SDS011;48555;50.952;-0.120;2023-04-06T00:10:32;4.68;;;2.88;;
61393;SDS011;48555;50.952;-0.120;2023-04-06T00:12:58;3.70;;;2.60;;
61393;SDS011;48555;50.952;-0.120;2023-04-06T00:15:24;4.03;;;2.58;;
61393;SDS011;48555;50.952;-0.120;2023-04-06T00:17:50;3.88;;;2.40;;
61393;SDS011;48555;50.952;-0.120;2023-04-06T00:20:15;2.95;;;2.10;;
61393;SDS011;48555;50.952;-0.120;2023-04-06T00:22:41;3.90;;;2.20;;
61393;SDS011;48555;50.952;-0.120;2023-04-06T00:25:07;4.15;;;2.22;;
61393;SDS011;48555;50.952;-0.120;2023-04-06T00:27:33;4.65;;;2.50;;
61393;SDS011;48555;50.952;-0.120;2023-04-06T00:29:58;4.15;;;2.38;;
61393;SDS011;48555;50.952;-0.120;2023-04-06T00:32:24;4.53;;;2.10;;
61393;SDS011;48555;50.952;-0.120;2023-04-06T00:34:49;3.50;;;2.30;;
61393;SDS011;48555;50.952;-0.120;2023-04-06T00:37:14;3.92;;;2.03;;
61393;SDS011;48555;50.952;-0.120;2023-04-06T00:39:40;4.18;;;1.90;;
61393;SDS011;48555;50.952;-0.120;2023-04-06T00:42:07;4.35;;;2.00;;
61393;SDS011;48555;50.952;-0.120;2023-04-06T00:44:38;4.68;;;2.20;;
61393;SDS011;48555;50.952;-0.120;2023-04-06T00:47:03;3.83;;;2.20;;
61393;SDS011;48555;50.952;-0.120;2023-04-06T00:49:29;3.80;;;1.90;;
61393;SDS011;48555;50.952;-0.120;2023-04-06T00:51:54;3.03;;;1.73;;
61393;SDS011;48555;50.952;-0.120;2023-04-06T00:54:20;2.95;;;1.80;;
61393;SDS011;48555;50.952;-0.120;2023-04-06T00:56:45;3.13;;;1.90;;
61393;SDS011;48555;50.952;-0.120;2023-04-06T00:59:11;2.10;;;1.63;;
61393;SDS011;48555;50.952;-0.120;2023-04-06T01:01:37;4.45;;;1.80;;
61393;SDS011;48555;50.952;-0.120;2023-04-06T01:04:02;3.95;;;2.10;;
61393;SDS011;48555;50.952;-0.120;2023-04-06T01:06:28;2.55;;;1.77;;
61393;SDS011;48555;50.952;-0.120;2023-04-06T01:08:53;3.05;;;1.63;;
61393;SDS011;48555;50.952;-0.120;2023-04-06T01:11:19;2.75;;;1.58;;
61393;SDS011;48555;50.952;-0.120;2023-04-06T01:13:45;4.05;;;2.10;;
61393;SDS011;48555;50.952;-0.120;2023-04-06T01:16:10;2.50;;;1.83;;
61393;SDS011;48555;50.952;-0.120;2023-04-06T01:18:37;3.92;;;2.03;;
61393;SDS011;48555;50.952;-0.120;2023-04-06T01:21:03;3.78;;;2.08;;
61393;SDS011;48555;50.952;-0.120;2023-04-06T01:23:28;3.33;;;2.00;;
61393;SDS011;48555;50.952;-0.120;2023-04-06T01:25:54;4.30;;;2.20;;
61393;SDS011;48555;50.952;-0.120;2023-04-06T01:28:19;3.20;;;2.03;;
61393;SDS011;48555;50.952;-0.120;2023-04-06T01:30:45;3.80;;;1.85;;
61393;SDS011;48555;50.952;-0.120;2023-04-06T01:33:11;2.15;;;1.75;;
61393;SDS011;48555;50.952;-0.120;2023-04-06T01:35:36;2.88;;;1.80;;
61393;SDS011;48555;50.952;-0.120;2023-04-06T01:38:02;3.00;;;1.92;;
61393;SDS011;48555;50.952;-0.120;2023-04-06T01:40:27;2.10;;;1.80;;
61393;SDS011;48555;50.952;-0.120;2023-04-06T01:42:53;2.67;;;1.90;;
61393;SDS011;48555;50.952;-0.120;2023-04-06T01:45:18;4.32;;;1.88;;
61393;SDS011;48555;50.952;-0.120;2023-04-06T01:47:43;3.40;;;1.92;;
61393;SDS011;48555;50.952;-0.120;2023-04-06T01:50:09;2.90;;;1.90;;
61393;SDS011;48555;50.952;-0.120;2023-04-06T01:52:34;4.07;;;1.92;;
61393;SDS011;48555;50.952;-0.120;2023-04-06T01:55:00;5.07;;;2.30;;
61393;SDS011;48555;50.952;-0.120;2023-04-06T01:57:25;3.55;;;2.17;;
61393;SDS011;48555;50.952;-0.120;2023-04-06T01:59:50;5.22;;;2.33;;
61393;SDS011;48555;50.952;-0.120;2023-04-06T02:02:16;4.43;;;2.33;;
61393;SDS011;48555;50.952;-0.120;2023-04-06T02:04:42;3.78;;;2.15;;
61393;SDS011;48555;50.952;-0.120;2023-04-06T02:07:07;6.10;;;2.20;;
61393;SDS011;48555;50.952;-0.120;2023-04-06T02:09:32;4.53;;;2.05;;
61393;SDS011;48555;50.952;-0.120;2023-04-06T02:11:58;2.25;;;1.70;;
61393;SDS011;48555;50.952;-0.120;2023-04-06T02:14:24;4.57;;;2.25;;
61393;SDS011;48555;50.952;-0.120;2023-04-06T02:16:50;4.88;;;2.20;;
61393;SDS011;48555;50.952;-0.120;2023-04-06T02:19:16;4.13;;;2.20;;
61393;SDS011;48555;50.952;-0.120;2023-04-06T02:21:41;4.75;;;2.15;;
61393;SDS011;48555;50.952;-0.120;2023-04-06T02:24:07;6.30;;;2.55;;
61393;SDS011;48555;50.952;-0.120;2023-04-06T02:26:32;5.97;;;2.40;;
61393;SDS011;48555;50.952;-0.120;2023-04-06T02:28:57;5.38;;;2.30;;
61393;SDS011;48555;50.952;-0.120;2023-04-06T02:31:23;5.18;;;2.08;;
61393;SDS011;48555;50.952;-0.120;2023-04-06T02:33:48;5.18;;;2.20;;
61393;SDS011;48555;50.952;-0.120;2023-04-06T02:36:13;4.32;;;2.03;;
61393;SDS011;48555;50.952;-0.120;2023-04-06T02:38:39;3.28;;;2.15;;
61393;SDS011;48555;50.952;-0.120;2023-04-06T02:41:05;4.35;;;2.10;;
61393;SDS011;48555;50.952;-0.120;2023-04-06T02:43:30;4.03;;;2.08;;
61393;SDS011;48555;50.952;-0.120;2023-04-06T02:45:55;3.70;;;2.10;;
61393;SDS011;48555;50.952;-0.120;2023-04-06T02:48:21;3.88;;;2.17;;
61393;SDS011;48555;50.952;-0.120;2023-04-06T02:50:46;4.78;;;2.40;;
61393;SDS011;48555;50.952;-0.120;2023-04-06T02:53:11;3.42;;;2.05;;
61393;SDS011;48555;50.952;-0.120;2023-04-06T02:55:37;3.42;;;1.80;;
61393;SDS011;48555;50.952;-0.120;2023-04-06T02:58:02;3.05;;;1.77;;
61393;SDS011;48555;50.952;-0.120;2023-04-06T03:00:27;2.65;;;1.80;;
61393;SDS011;48555;50.952;-0.120;2023-04-06T03:02:53;3.25;;;1.70;;
61393;SDS011;48555;50.952;-0.120;2023-04-06T03:05:18;3.10;;;1.80;;
61393;SDS011;48555;50.952;-0.120;2023-04-06T03:07:43;3.90;;;1.90;;
61393;SDS011;48555;50.952;-0.120;2023-04-06T03:10:09;3.75;;;1.70;;
61393;SDS011;48555;50.952;-0.120;2023-04-06T03:12:35;3.35;;;1.88;;
61393;SDS011;48555;50.952;-0.120;2023-04-06T03:15:00;3.25;;;1.75;;
61393;SDS011;48555;50.952;-0.120;2023-04-06T03:17:25;1.92;;;1.60;;
61393;SDS011;48555;50.952;-0.120;2023-04-06T03:19:51;2.53;;;1.70;;
61393;SDS011;48555;50.952;-0.120;2023-04-06T03:22:16;2.80;;;1.98;;
61393;SDS011;48555;50.952;-0.120;2023-04-06T03:24:42;2.88;;;1.60;;
61393;SDS011;48555;50.952;-0.120;2023-04-06T03:27:07;5.20;;;2.20;;
61393;SDS011;48555;50.952;-0.120;2023-04-06T03:29:32;2.88;;;1.92;;
61393;SDS011;48555;50.952;-0.120;2023-04-06T03:31:57;4.97;;;2.05;;
61393;SDS011;48555;50.952;-0.120;2023-04-06T03:34:23;3.08;;;1.80;;
61393;SDS011;48555;50.952;-0.120;2023-04-06T03:36:48;3.03;;;1.77;;
61393;SDS011;48555;50.952;-0.120;2023-04-06T03:39:14;2.45;;;1.55;;
61393;SDS011;48555;50.952;-0.120;2023-04-06T03:41:39;2.85;;;1.40;;
61393;SDS011;48555;50.952;-0.120;2023-04-06T03:44:05;1.75;;;1.02;;
61393;SDS011;48555;50.952;-0.120;2023-04-06T03:46:30;2.50;;;1.33;;
61393;SDS011;48555;50.952;-0.120;2023-04-06T03:48:56;2.38;;;1.30;;
61393;SDS011;48555;50.952;-0.120;2023-04-06T03:51:21;2.33;;;1.27;;
61393;SDS011;48555;50.952;-0.120;2023-04-06T03:53:47;2.47;;;1.25;;
61393;SDS011;48555;50.952;-0.120;2023-04-06T03:56:12;3.00;;;1.30;;
61393;SDS011;48555;50.952;-0.120;2023-04-06T03:58:38;2.50;;;1.30;;
61393;SDS011;48555;50.952;-0.120;2023-04-06T04:01:03;3.20;;;1.30;;
61393;SDS011;48555;50.952;-0.120;2023-04-06T04:03:28;2.30;;;1.58;;
61393;SDS011;48555;50.952;-0.120;2023-04-06T04:05:54;4.90;;;1.40;;
61393;SDS011;48555;50.952;-0.120;2023-04-06T04:08:23;1.42;;;1.33;;
61393;SDS011;48555;50.952;-0.120;2023-04-06T04:10:49;2.75;;;1.20;;
61393;SDS011;48555;50.952;-0.120;2023-04-06T04:13:14;2.70;;;1.40;;
61393;SDS011;48555;50.952;-0.120;2023-04-06T04:15:40;1.20;;;1.10;;
61393;SDS011;48555;50.952;-0.120;2023-04-06T04:18:05;2.47;;;1.35;;
61393;SDS011;48555;50.952;-0.120;2023-04-06T04:20:31;2.10;;;1.50;;
61393;SDS011;48555;50.952;-0.120;2023-04-06T04:22:56;2.10;;;1.20;;
61393;SDS011;48555;50.952;-0.120;2023-04-06T04:25:22;4.35;;;1.70;;
61393;SDS011;48555;50.952;-0.120;2023-04-06T04:27:48;2.95;;;1.42;;
61393;SDS011;48555;50.952;-0.120;2023-04-06T04:30:13;2.88;;;1.30;;
61393;SDS011;48555;50.952;-0.120;2023-04-06T04:32:38;2.15;;;1.50;;
61393;SDS011;48555;50.952;-0.120;2023-04-06T04:35:04;2.38;;;1.40;;
61393;SDS011;48555;50.952;-0.120;2023-04-06T04:37:29;3.10;;;1.40;;
61393;SDS011;48555;50.952;-0.120;2023-04-06T04:39:55;2.50;;;1.50;;
61393;SDS011;48555;50.952;-0.120;2023-04-06T04:42:20;2.13;;;1.63;;
61393;SDS011;48555;50.952;-0.120;2023-04-06T04:44:46;3.42;;;1.60;;
61393;SDS011;48555;50.952;-0.120;2023-04-06T04:47:11;3.03;;;1.70;;
61393;SDS011;48555;50.952;-0.120;2023-04-06T04:49:36;3.25;;;1.65;;
61393;SDS011;48555;50.952;-0.120;2023-04-06T04:52:02;2.70;;;1.60;;
61393;SDS011;48555;50.952;-0.120;2023-04-06T04:54:27;3.13;;;2.00;;
61393;SDS011;48555;50.952;-0.120;2023-04-06T04:56:52;4.35;;;2.10;;
61393;SDS011;48555;50.952;-0.120;2023-04-06T04:59:18;4.50;;;2.40;;
61393;SDS011;48555;50.952;-0.120;2023-04-06T05:01:43;5.75;;;2.90;;
61393;SDS011;48555;50.952;-0.120;2023-04-06T05:04:08;6.03;;;2.90;;
61393;SDS011;48555;50.952;-0.120;2023-04-06T05:06:34;4.80;;;3.10;;
61393;SDS011;48555;50.952;-0.120;2023-04-06T05:08:59;5.88;;;3.10;;
61393;SDS011;48555;50.952;-0.120;2023-04-06T05:11:24;5.63;;;3.25;;
61393;SDS011;48555;50.952;-0.120;2023-04-06T05:13:51;6.68;;;3.85;;
61393;SDS011;48555;50.952;-0.120;2023-04-06T05:16:16;6.50;;;3.63;;
61393;SDS011;48555;50.952;-0.120;2023-04-06T05:18:42;8.15;;;3.90;;
61393;SDS011;48555;50.952;-0.120;2023-04-06T05:21:07;9.80;;;4.80;;
61393;SDS011;48555;50.952;-0.120;2023-04-06T05:23:32;8.55;;;4.65;;
61393;SDS011;48555;50.952;-0.120;2023-04-06T05:25:58;8.23;;;4.95;;
61393;SDS011;48555;50.952;-0.120;2023-04-06T05:28:23;10.18;;;5.70;;
61393;SDS011;48555;50.952;-0.120;2023-04-06T05:30:49;10.48;;;5.38;;
61393;SDS011;48555;50.952;-0.120;2023-04-06T05:33:14;10.50;;;5.00;;
61393;SDS011;48555;50.952;-0.120;2023-04-06T05:35:40;8.45;;;4.93;;
61393;SDS011;48555;50.952;-0.120;2023-04-06T05:38:07;10.38;;;4.70;;
61393;SDS011;48555;50.952;-0.120;2023-04-06T05:40:33;10.77;;;5.07;;
61393;SDS011;48555;50.952;-0.120;2023-04-06T05:42:58;7.80;;;4.82;;
61393;SDS011;48555;50.952;-0.120;2023-04-06T05:45:23;10.48;;;5.03;;
61393;SDS011;48555;50.952;-0.120;2023-04-06T05:47:49;8.30;;;5.05;;
61393;SDS011;48555;50.952;-0.120;2023-04-06T05:50:15;8.20;;;5.30;;
61393;SDS011;48555;50.952;-0.120;2023-04-06T05:52:40;10.93;;;5.35;;
61393;SDS011;48555;50.952;-0.120;2023-04-06T05:55:08;13.00;;;5.30;;
61393;SDS011;48555;50.952;-0.120;2023-04-06T05:57:34;11.70;;;5.72;;
61393;SDS011;48555;50.952;-0.120;2023-04-06T06:00:00;9.43;;;4.90;;
61393;SDS011;48555;50.952;-0.120;2023-04-06T06:02:25;11.55;;;5.22;;
61393;SDS011;48555;50.952;-0.120;2023-04-06T06:04:51;12.32;;;5.63;;
61393;SDS011;48555;50.952;-0.120;2023-04-06T06:07:16;9.23;;;4.85;;
61393;SDS011;48555;50.952;-0.120;2023-04-06T06:09:41;15.20;;;5.03;;
61393;SDS011;48555;50.952;-0.120;2023-04-06T06:12:07;9.75;;;4.80;;
61393;SDS011;48555;50.952;-0.120;2023-04-06T06:14:32;9.30;;;4.25;;
61393;SDS011;48555;50.952;-0.120;2023-04-06T06:16:58;8.93;;;5.10;;
61393;SDS011;48555;50.952;-0.120;2023-04-06T06:19:23;9.25;;;5.10;;
61393;SDS011;48555;50.952;-0.120;2023-04-06T06:21:48;7.30;;;4.60;;
61393;SDS011;48555;50.952;-0.120;2023-04-06T06:24:14;8.27;;;4.60;;
61393;SDS011;48555;50.952;-0.120;2023-04-06T06:26:39;10.57;;;4.30;;
61393;SDS011;48555;50.952;-0.120;2023-04-06T06:29:05;12.52;;;4.90;;
61393;SDS011;48555;50.952;-0.120;2023-04-06T06:31:31;9.23;;;4.80;;
61393;SDS011;48555;50.952;-0.120;2023-04-06T06:33:57;7.05;;;3.95;;
61393;SDS011;48555;50.952;-0.120;2023-04-06T06:36:22;8.02;;;3.92;;
61393;SDS011;48555;50.952;-0.120;2023-04-06T06:38:48;7.70;;;3.85;;
61393;SDS011;48555;50.952;-0.120;2023-04-06T06:41:13;7.85;;;4.00;;
61393;SDS011;48555;50.952;-0.120;2023-04-06T06:43:38;7.10;;;4.35;;
61393;SDS011;48555;50.952;-0.120;2023-04-06T06:46:04;8.20;;;4.28;;
61393;SDS011;48555;50.952;-0.120;2023-04-06T06:48:30;8.32;;;4.68;;
61393;SDS011;48555;50.952;-0.120;2023-04-06T06:50:56;9.95;;;4.53;;
61393;SDS011;48555;50.952;-0.120;2023-04-06T06:53:21;10.02;;;5.10;;
61393;SDS011;48555;50.952;-0.120;2023-04-06T06:55:47;10.98;;;5.22;;
61393;SDS011;48555;50.952;-0.120;2023-04-06T06:58:19;8.85;;;4.97;;
61393;SDS011;48555;50.952;-0.120;2023-04-06T07:03:12;7.70;;;4.07;;
61393;SDS011;48555;50.952;-0.120;2023-04-06T07:05:38;7.18;;;4.13;;
61393;SDS011;48555;50.952;-0.120;2023-04-06T07:08:03;7.55;;;4.68;;
61393;SDS011;48555;50.952;-0.120;2023-04-06T07:10:29;7.57;;;4.43;;
61393;SDS011;48555;50.952;-0.120;2023-04-06T07:12:54;6.65;;;4.07;;
61393;SDS011;48555;50.952;-0.120;2023-04-06T07:15:21;9.13;;;5.22;;
61393;SDS011;48555;50.952;-0.120;2023-04-06T07:17:46;7.20;;;4.65;;
61393;SDS011;48555;50.952;-0.120;2023-04-06T07:20:12;7.22;;;4.45;;
61393;SDS011;48555;50.952;-0.120;2023-04-06T07:22:38;8.07;;;5.00;;
61393;SDS011;48555;50.952;-0.120;2023-04-06T07:25:04;7.10;;;4.57;;
61393;SDS011;48555;50.952;-0.120;2023-04-06T07:27:29;7.68;;;4.80;;
61393;SDS011;48555;50.952;-0.120;2023-04-06T07:29:55;7.10;;;4.28;;
61393;SDS011;48555;50.952;-0.120;2023-04-06T07:32:20;6.95;;;4.30;;
61393;SDS011;48555;50.952;-0.120;2023-04-06T07:34:46;7.10;;;4.50;;
61393;SDS011;48555;50.952;-0.120;2023-04-06T07:37:11;6.15;;;4.40;;
61393;SDS011;48555;50.952;-0.120;2023-04-06T07:39:37;6.13;;;3.90;;
61393;SDS011;48555;50.952;-0.120;2023-04-06T07:42:02;8.55;;;4.00;;
61393;SDS011;48555;50.952;-0.120;2023-04-06T07:44:28;6.68;;;4.00;;
61393;SDS011;48555;50.952;-0.120;2023-04-06T07:46:53;6.78;;;3.90;;
61393;SDS011;48555;50.952;-0.120;2023-04-06T07:49:18;6.43;;;3.78;;
61393;SDS011;48555;50.952;-0.120;2023-04-06T07:51:45;5.75;;;3.67;;
61393;SDS011;48555;50.952;-0.120;2023-04-06T07:54:11;6.10;;;3.40;;
61393;SDS011;48555;50.952;-0.120;2023-04-06T07:56:36;4.97;;;3.25;;
61393;SDS011;48555;50.952;-0.120;2023-04-06T07:59:03;5.93;;;3.20;;
61393;SDS011;48555;50.952;-0.120;2023-04-06T08:01:28;4.90;;;3.15;;
61393;SDS011;48555;50.952;-0.120;2023-04-06T08:03:55;6.40;;;3.15;;
61393;SDS011;48555;50.952;-0.120;2023-04-06T08:06:21;5.55;;;2.90;;
61393;SDS011;48555;50.952;-0.120;2023-04-06T08:08:47;3.97;;;2.20;;
61393;SDS011;48555;50.952;-0.120;2023-04-06T08:11:12;4.60;;;2.13;;
61393;SDS011;48555;50.952;-0.120;2023-04-06T08:13:38;3.83;;;2.30;;
61393;SDS011;48555;50.952;-0.120;2023-04-06T08:16:03;4.50;;;1.90;;
61393;SDS011;48555;50.952;-0.120;2023-04-06T08:18:29;5.35;;;1.75;;
61393;SDS011;48555;50.952;-0.120;2023-04-06T08:20:55;3.38;;;1.90;;
61393;SDS011;48555;50.952;-0.120;2023-04-06T08:23:21;3.33;;;1.63;;
61393;SDS011;48555;50.952;-0.120;2023-04-06T08:25:46;3.60;;;1.60;;
61393;SDS011;48555;50.952;-0.120;2023-04-06T08:28:12;3.72;;;1.60;;
61393;SDS011;48555;50.952;-0.120;2023-04-06T08:30:40;4.38;;;1.38;;
61393;SDS011;48555;50.952;-0.120;2023-04-06T08:33:06;3.63;;;1.67;;
61393;SDS011;48555;50.952;-0.120;2023-04-06T08:35:31;3.05;;;1.52;;
61393;SDS011;48555;50.952;-0.120;2023-04-06T08:37:57;5.13;;;1.60;;
61393;SDS011;48555;50.952;-0.120;2023-04-06T08:40:22;4.25;;;1.65;;
61393;SDS011;48555;50.952;-0.120;2023-04-06T08:42:54;5.03;;;1.50;;
61393;SDS011;48555;50.952;-0.120;2023-04-06T08:45:21;3.10;;;1.40;;
61393;SDS011;48555;50.952;-0.120;2023-04-06T08:47:50;5.35;;;1.67;;
61393;SDS011;48555;50.952;-0.120;2023-04-06T08:50:17;4.97;;;1.52;;
61393;SDS011;48555;50.952;-0.120;2023-04-06T08:52:46;4.78;;;1.83;;
61393;SDS011;48555;50.952;-0.120;2023-04-06T08:55:12;5.78;;;1.33;;
61393;SDS011;48555;50.952;-0.120;2023-04-06T08:57:38;5.40;;;1.50;;
61393;SDS011;48555;50.952;-0.120;2023-04-06T09:00:04;6.00;;;1.50;;
61393;SDS011;48555;50.952;-0.120;2023-04-06T09:02:32;8.93;;;1.88;;
61393;SDS011;48555;50.952;-0.120;2023-04-06T09:04:58;6.85;;;1.80;;
61393;SDS011;48555;50.952;-0.120;2023-04-06T09:07:24;8.18;;;1.65;;
61393;SDS011;48555;50.952;-0.120;2023-04-06T09:09:49;5.97;;;1.80;;
61393;SDS011;48555;50.952;-0.120;2023-04-06T09:12:26;5.35;;;1.55;;
61393;SDS011;48555;50.952;-0.120;2023-04-06T09:14:53;6.25;;;1.90;;
61393;SDS011;48555;50.952;-0.120;2023-04-06T09:17:19;9.70;;;2.08;;
61393;SDS011;48555;50.952;-0.120;2023-04-06T09:19:46;6.68;;;1.48;;
61393;SDS011;48555;50.952;-0.120;2023-04-06T09:22:12;6.53;;;1.85;;
61393;SDS011;48555;50.952;-0.120;2023-04-06T09:24:44;10.10;;;2.22;;
61393;SDS011;48555;50.952;-0.120;2023-04-06T09:27:11;9.40;;;2.15;;
61393;SDS011;48555;50.952;-0.120;2023-04-06T09:29:37;8.02;;;2.05;;
61393;SDS011;48555;50.952;-0.120;2023-04-06T09:32:03;7.70;;;2.30;;
61393;SDS011;48555;50.952;-0.120;2023-04-06T09:34:29;6.53;;;2.30;;
61393;SDS011;48555;50.952;-0.120;2023-04-06T09:36:55;7.20;;;2.33;;
61393;SDS011;48555;50.952;-0.120;2023-04-06T09:39:21;7.57;;;2.10;;
61393;SDS011;48555;50.952;-0.120;2023-04-06T09:41:50;6.97;;;2.17;;
61393;SDS011;48555;50.952;-0.120;2023-04-06T09:44:17;7.43;;;2.30;;
61393;SDS011;48555;50.952;-0.120;2023-04-06T09:46:43;6.18;;;2.35;;
61393;SDS011;48555;50.952;-0.120;2023-04-06T09:49:10;6.90;;;2.30;;
61393;SDS011;48555;50.952;-0.120;2023-04-06T09:51:38;8.30;;;2.67;;
61393;SDS011;48555;50.952;-0.120;2023-04-06T09:54:03;9.43;;;2.72;;
61393;SDS011;48555;50.952;-0.120;2023-04-06T10:01:45;11.25;;;2.63;;
61393;SDS011;48555;50.952;-0.120;2023-04-06T10:04:21;9.85;;;2.53;;
61393;SDS011;48555;50.952;-0.120;2023-04-06T10:06:50;6.57;;;2.58;;
61393;SDS011;48555;50.952;-0.120;2023-04-06T10:09:17;7.57;;;2.83;;
61393;SDS011;48555;50.952;-0.120;2023-04-06T10:11:47;8.73;;;2.97;;
61393;SDS011;48555;50.952;-0.120;2023-04-06T10:14:13;9.43;;;2.60;;
61393;SDS011;48555;50.952;-0.120;2023-04-06T10:16:40;11.63;;;2.92;;
61393;SDS011;48555;50.952;-0.120;2023-04-06T10:19:07;9.02;;;2.72;;
61393;SDS011;48555;50.952;-0.120;2023-04-06T10:21:38;6.65;;;2.80;;
61393;SDS011;48555;50.952;-0.120;2023-04-06T10:24:06;7.93;;;2.53;;
61393;SDS011;48555;50.952;-0.120;2023-04-06T10:26:35;7.45;;;2.67;;
61393;SDS011;48555;50.952;-0.120;2023-04-06T10:29:04;9.25;;;2.60;;
61393;SDS011;48555;50.952;-0.120;2023-04-06T10:31:30;7.32;;;2.60;;
61393;SDS011;48555;50.952;-0.120;2023-04-06T10:33:59;10.48;;;2.63;;
61393;SDS011;48555;50.952;-0.120;2023-04-06T10:36:27;5.72;;;2.70;;
61393;SDS011;48555;50.952;-0.120;2023-04-06T10:38:57;9.68;;;3.22;;
61393;SDS011;48555;50.952;-0.120;2023-04-06T10:41:34;6.60;;;2.60;;
61393;SDS011;48555;50.952;-0.120;2023-04-06T10:44:17;8.82;;;2.75;;
61393;SDS011;48555;50.952;-0.120;2023-04-06T10:46:53;9.45;;;2.80;;
61393;SDS011;48555;50.952;-0.120;2023-04-06T10:49:20;6.95;;;2.47;;
61393;SDS011;48555;50.952;-0.120;2023-04-06T10:51:50;8.13;;;2.40;;
61393;SDS011;48555;50.952;-0.120;2023-04-06T10:54:17;6.15;;;2.40;;
61393;SDS011;48555;50.952;-0.120;2023-04-06T10:56:43;7.53;;;2.53;;
61393;SDS011;48555;50.952;-0.120;2023-04-06T10:59:09;6.68;;;2.47;;
61393;SDS011;48555;50.952;-0.120;2023-04-06T11:01:34;6.97;;;2.30;;
61393;SDS011;48555;50.952;-0.120;2023-04-06T11:03:59;6.30;;;2.10;;
61393;SDS011;48555;50.952;-0.120;2023-04-06T11:06:25;10.43;;;2.80;;
61393;SDS011;48555;50.952;-0.120;2023-04-06T11:08:53;7.60;;;2.50;;
61393;SDS011;48555;50.952;-0.120;2023-04-06T11:11:20;5.47;;;2.30;;
61393;SDS011;48555;50.952;-0.120;2023-04-06T11:16:17;5.88;;;2.33;;
61393;SDS011;48555;50.952;-0.120;2023-04-06T11:18:48;6.88;;;2.35;;
61393;SDS011;48555;50.952;-0.120;2023-04-06T11:21:16;8.23;;;2.33;;
61393;SDS011;48555;50.952;-0.120;2023-04-06T11:23:43;5.68;;;2.20;;
61393;SDS011;48555;50.952;-0.120;2023-04-06T11:26:14;6.80;;;2.20;;
61393;SDS011;48555;50.952;-0.120;2023-04-06T11:28:41;5.72;;;2.10;;
61393;SDS011;48555;50.952;-0.120;2023-04-06T11:31:09;7.00;;;2.22;;
61393;SDS011;48555;50.952;-0.120;2023-04-06T11:33:36;4.93;;;2.10;;
61393;SDS011;48555;50.952;-0.120;2023-04-06T11:36:05;5.75;;;1.90;;
61393;SDS011;48555;50.952;-0.120;2023-04-06T11:38:31;7.10;;;2.42;;
61393;SDS011;48555;50.952;-0.120;2023-04-06T11:40:57;6.57;;;2.65;;
61393;SDS011;48555;50.952;-0.120;2023-04-06T11:43:27;6.13;;;2.30;;
61393;SDS011;48555;50.952;-0.120;2023-04-06T11:45:59;5.22;;;2.28;;
61393;SDS011;48555;50.952;-0.120;2023-04-06T11:48:28;5.70;;;2.10;;
61393;SDS011;48555;50.952;-0.120;2023-04-06T11:50:57;6.00;;;2.20;;
61393;SDS011;48555;50.952;-0.120;2023-04-06T11:53:26;7.53;;;2.38;;
61393;SDS011;48555;50.952;-0.120;2023-04-06T11:55:52;6.68;;;2.55;;
61393;SDS011;48555;50.952;-0.120;2023-04-06T11:58:17;5.25;;;2.20;;
61393;SDS011;48555;50.952;-0.120;2023-04-06T12:00:43;7.05;;;2.28;;
61393;SDS011;48555;50.952;-0.120;2023-04-06T12:03:11;5.85;;;1.92;;
61393;SDS011;48555;50.952;-0.120;2023-04-06T12:05:36;4.28;;;1.92;;
61393;SDS011;48555;50.952;-0.120;2023-04-06T12:08:02;5.97;;;2.15;;
61393;SDS011;48555;50.952;-0.120;2023-04-06T12:10:28;4.75;;;2.08;;
61393;SDS011;48555;50.952;-0.120;2023-04-06T12:12:53;5.43;;;1.75;;
61393;SDS011;48555;50.952;-0.120;2023-04-06T12:15:19;4.43;;;1.70;;
61393;SDS011;48555;50.952;-0.120;2023-04-06T12:17:44;6.30;;;2.10;;
61393;SDS011;48555;50.952;-0.120;2023-04-06T12:20:09;3.65;;;1.80;;
61393;SDS011;48555;50.952;-0.120;2023-04-06T12:22:35;4.85;;;1.73;;
61393;SDS011;48555;50.952;-0.120;2023-04-06T12:25:01;3.67;;;1.83;;
61393;SDS011;48555;50.952;-0.120;2023-04-06T12:27:26;4.93;;;2.50;;
61393;SDS011;48555;50.952;-0.120;2023-04-06T12:29:52;5.75;;;2.20;;
61393;SDS011;48555;50.952;-0.120;2023-04-06T12:32:18;5.18;;;1.80;;
61393;SDS011;48555;50.952;-0.120;2023-04-06T12:34:44;4.82;;;1.60;;
61393;SDS011;48555;50.952;-0.120;2023-04-06T12:37:09;5.00;;;2.03;;
61393;SDS011;48555;50.952;-0.120;2023-04-06T12:39:35;4.50;;;1.50;;
61393;SDS011;48555;50.952;-0.120;2023-04-06T12:42:00;5.00;;;1.83;;
61393;SDS011;48555;50.952;-0.120;2023-04-06T12:44:26;4.18;;;1.65;;
61393;SDS011;48555;50.952;-0.120;2023-04-06T12:46:51;5.28;;;1.65;;
61393;SDS011;48555;50.952;-0.120;2023-04-06T12:49:17;6.07;;;2.00;;
61393;SDS011;48555;50.952;-0.120;2023-04-06T12:51:44;5.70;;;1.90;;
61393;SDS011;48555;50.952;-0.120;2023-04-06T12:54:10;3.55;;;2.08;;
61393;SDS011;48555;50.952;-0.120;2023-04-06T12:56:36;3.53;;;1.90;;
61393;SDS011;48555;50.952;-0.120;2023-04-06T12:59:02;6.05;;;1.70;;
61393;SDS011;48555;50.952;-0.120;2023-04-06T13:01:27;4.07;;;1.75;;
61393;SDS011;48555;50.952;-0.120;2023-04-06T13:03:53;3.60;;;1.40;;
61393;SDS011;48555;50.952;-0.120;2023-04-06T13:06:18;4.50;;;1.50;;
61393;SDS011;48555;50.952;-0.120;2023-04-06T13:08:44;3.75;;;1.30;;
61393;SDS011;48555;50.952;-0.120;2023-04-06T13:11:12;3.97;;;1.60;;
61393;SDS011;48555;50.952;-0.120;2023-04-06T13:13:37;3.28;;;1.38;;
61393;SDS011;48555;50.952;-0.120;2023-04-06T13:16:03;7.30;;;1.52;;
61393;SDS011;48555;50.952;-0.120;2023-04-06T13:18:31;5.05;;;1.33;;
61393;SDS011;48555;50.952;-0.120;2023-04-06T13:20:57;5.22;;;1.55;;
61393;SDS011;48555;50.952;-0.120;2023-04-06T13:23:24;5.03;;;1.60;;
61393;SDS011;48555;50.952;-0.120;2023-04-06T13:25:56;5.07;;;1.70;;
61393;SDS011;48555;50.952;-0.120;2023-04-06T13:28:26;5.78;;;1.50;;
61393;SDS011;48555;50.952;-0.120;2023-04-06T13:30:51;5.32;;;1.50;;
61393;SDS011;48555;50.952;-0.120;2023-04-06T13:33:17;3.65;;;1.42;;
61393;SDS011;48555;50.952;-0.120;2023-04-06T13:35:45;5.50;;;2.05;;
61393;SDS011;48555;50.952;-0.120;2023-04-06T13:38:11;4.63;;;1.75;;
61393;SDS011;48555;50.952;-0.120;2023-04-06T13:40:40;5.97;;;1.90;;
61393;SDS011;48555;50.952;-0.120;2023-04-06T13:43:06;3.45;;;1.33;;
61393;SDS011;48555;50.952;-0.120;2023-04-06T13:45:32;1.67;;;1.05;;
61393;SDS011;48555;50.952;-0.120;2023-04-06T13:47:57;3.70;;;1.27;;
61393;SDS011;48555;50.952;-0.120;2023-04-06T13:50:25;2.92;;;1.20;;
61393;SDS011;48555;50.952;-0.120;2023-04-06T13:52:50;4.82;;;1.25;;
61393;SDS011;48555;50.952;-0.120;2023-04-06T13:55:16;3.80;;;1.48;;
61393;SDS011;48555;50.952;-0.120;2023-04-06T13:57:41;2.17;;;0.90;;
61393;SDS011;48555;50.952;-0.120;2023-04-06T14:00:07;2.22;;;1.08;;
61393;SDS011;48555;50.952;-0.120;2023-04-06T14:02:34;2.75;;;1.13;;
61393;SDS011;48555;50.952;-0.120;2023-04-06T14:04:59;3.05;;;1.63;;
61393;SDS011;48555;50.952;-0.120;2023-04-06T14:07:24;3.92;;;1.70;;
61393;SDS011;48555;50.952;-0.120;2023-04-06T14:09:50;5.93;;;1.80;;
61393;SDS011;48555;50.952;-0.120;2023-04-06T14:12:15;5.60;;;1.60;;
61393;SDS011;48555;50.952;-0.120;2023-04-06T14:14:41;4.28;;;1.63;;
61393;SDS011;48555;50.952;-0.120;2023-04-06T14:17:06;5.97;;;1.80;;
61393;SDS011;48555;50.952;-0.120;2023-04-06T14:19:31;5.13;;;1.90;;
61393;SDS011;48555;50.952;-0.120;2023-04-06T14:21:57;2.45;;;1.60;;
61393;SDS011;48555;50.952;-0.120;2023-04-06T14:24:22;6.47;;;1.80;;
61393;SDS011;48555;50.952;-0.120;2023-04-06T14:26:47;5.03;;;1.95;;
61393;SDS011;48555;50.952;-0.120;2023-04-06T14:29:13;5.05;;;1.42;;
61393;SDS011;48555;50.952;-0.120;2023-04-06T14:31:38;3.78;;;1.60;;
61393;SDS011;48555;50.952;-0.120;2023-04-06T14:34:04;6.55;;;1.65;;
61393;SDS011;48555;50.952;-0.120;2023-04-06T14:36:32;3.63;;;1.38;;